Time;durP1;ratioP1;P1;durP2;ratioP2;P2;SDS_P1;SDS_P2;PMS_P1;PMS_P2;Temp;Humidity;BMP_temperature;BMP_pressure;BME280_temperature;BME280_humidity;BME280_pressure;Samples;Min_cycle;Max_cycle;Signal;HPM_P1;HPM_P2
2023/03/11 00:02:10;;;;;;;1.23;0.98;;;2.00;99.90;;;;;;4962606;28;20264;-71
2023/03/11 00:04:38;;;;;;;1.10;1.00;;;1.90;99.90;;;;;;4951357;28;20221;-71
2023/03/11 00:07:06;;;;;;;1.08;0.90;;;1.90;99.90;;;;;;4967223;28;20200;-71
2023/03/11 00:09:34;;;;;;;1.33;1.00;;;1.90;99.90;;;;;;4971002;28;20200;-70
2023/03/11 00:12:02;;;;;;;0.95;0.85;;;1.90;99.90;;;;;;4964031;28;20691;-70
2023/03/11 00:14:29;;;;;;;1.15;1.05;;;1.90;99.90;;;;;;4951885;28;20231;-70
2023/03/11 00:16:56;;;;;;;1.30;1.10;;;1.80;99.90;;;;;;4955180;28;20218;-70
2023/03/11 00:19:23;;;;;;;1.23;1.13;;;1.80;99.90;;;;;;4955184;28;20209;-70
2023/03/11 00:21:49;;;;;;;1.90;1.13;;;1.80;99.90;;;;;;4954954;28;20291;-70
2023/03/11 00:24:16;;;;;;;1.35;1.10;;;1.70;99.90;;;;;;4963827;28;20235;-70
2023/03/11 00:26:43;;;;;;;1.42;1.33;;;1.70;99.90;;;;;;4974361;28;20204;-71
2023/03/11 00:29:11;;;;;;;2.35;1.20;;;1.70;99.90;;;;;;4974340;28;20208;-70
2023/03/11 00:31:38;;;;;;;1.25;0.90;;;1.80;99.90;;;;;;4955067;28;21005;-70
2023/03/11 00:34:04;;;;;;;1.05;0.95;;;1.80;99.90;;;;;;4954647;28;20231;-70
2023/03/11 00:36:33;;;;;;;1.13;1.00;;;1.80;99.90;;;;;;4958761;28;20204;-70
2023/03/11 00:39:05;;;;;;;0.80;0.80;;;1.90;99.90;;;;;;4974231;28;20228;-70
2023/03/11 00:41:32;;;;;;;1.55;1.13;;;1.90;99.90;;;;;;4974303;28;20244;-72
2023/03/11 00:43:58;;;;;;;1.00;0.80;;;1.90;99.90;;;;;;4973673;28;20216;-71
2023/03/11 00:46:28;;;;;;;1.55;1.25;;;1.90;99.90;;;;;;4973737;28;20207;-70
2023/03/11 00:48:55;;;;;;;1.75;1.10;;;1.90;99.90;;;;;;4973942;28;20295;-70
2023/03/11 00:51:21;;;;;;;1.13;1.02;;;2.00;99.90;;;;;;4973813;28;20204;-71
2023/03/11 00:53:48;;;;;;;1.15;1.05;;;2.00;99.90;;;;;;4973756;28;20230;-71
2023/03/11 00:56:16;;;;;;;1.27;0.90;;;2.10;99.90;;;;;;4973436;28;20204;-70
2023/03/11 00:58:44;;;;;;;1.25;1.15;;;2.10;99.90;;;;;;4974032;28;20204;-71
2023/03/11 01:01:13;;;;;;;1.88;0.93;;;2.10;99.90;;;;;;4973504;28;20250;-71
2023/03/11 01:03:41;;;;;;;1.27;1.17;;;2.10;99.90;;;;;;4969915;28;20220;-71
2023/03/11 01:06:08;;;;;;;1.20;1.10;;;2.10;99.90;;;;;;4954095;28;20204;-71
2023/03/11 01:08:35;;;;;;;1.52;1.40;;;2.10;99.90;;;;;;4954318;28;20207;-71
2023/03/11 01:11:03;;;;;;;1.35;1.05;;;2.10;99.90;;;;;;4954047;28;20203;-71
2023/03/11 01:13:31;;;;;;;1.55;1.23;;;2.10;99.90;;;;;;4956333;28;20232;-71
2023/03/11 01:15:57;;;;;;;2.53;1.83;;;2.10;99.90;;;;;;4973232;28;20200;-70
2023/03/11 01:18:25;;;;;;;1.55;1.27;;;2.20;99.90;;;;;;4973425;28;20207;-71
2023/03/11 01:20:53;;;;;;;1.63;1.52;;;2.10;99.90;;;;;;4973386;28;20266;-70
2023/03/11 01:23:20;;;;;;;1.27;0.95;;;2.10;99.90;;;;;;5049682;23;20239;-76
2023/03/11 01:25:47;;;;;;;2.03;1.60;;;2.10;99.90;;;;;;4991919;28;20195;-75
2023/03/11 01:28:14;;;;;;;1.65;1.08;;;2.10;99.90;;;;;;4992049;28;20218;-76
2023/03/11 01:30:41;;;;;;;1.48;1.30;;;2.10;99.90;;;;;;4992422;28;20191;-76
2023/03/11 01:33:13;;;;;;;1.45;1.35;;;2.10;99.90;;;;;;4988021;28;20722;-76
2023/03/11 01:35:41;;;;;;;1.40;1.25;;;2.10;99.90;;;;;;4976046;28;20199;-75
2023/03/11 01:38:09;;;;;;;1.40;1.13;;;2.10;99.90;;;;;;4992030;28;20377;-75
2023/03/11 01:40:39;;;;;;;1.55;1.45;;;2.00;99.90;;;;;;4991682;28;20222;-76
2023/03/11 01:43:27;;;;;;;1.77;1.67;;;1.90;99.90;;;;;;4991763;28;20581;-76
2023/03/11 01:46:10;;;;;;;0.93;0.82;;;1.90;99.90;;;;;;4991540;28;20218;-75
2023/03/11 01:48:37;;;;;;;2.20;1.00;;;1.80;99.90;;;;;;4990194;28;20206;-76
2023/03/11 01:51:05;;;;;;;1.95;1.10;;;1.70;99.90;;;;;;4991750;28;20199;-76
2023/03/11 01:53:34;;;;;;;1.23;1.00;;;1.70;99.90;;;;;;4991498;28;20289;-76
2023/03/11 01:56:02;;;;;;;1.60;1.38;;;1.70;99.90;;;;;;4991467;28;20207;-76
2023/03/11 01:58:35;;;;;;;3.03;1.10;;;1.60;99.90;;;;;;4991510;28;20234;-75
2023/03/11 02:01:03;;;;;;;0.98;0.88;;;1.60;99.90;;;;;;4991300;28;20222;-76
2023/03/11 02:03:32;;;;;;;2.47;1.00;;;1.60;99.90;;;;;;4991044;28;20758;-75
2023/03/11 02:06:03;;;;;;;1.38;1.13;;;1.50;99.90;;;;;;4985217;28;20196;-76
2023/03/11 02:08:32;;;;;;;1.90;1.63;;;1.50;99.90;;;;;;4972071;28;20210;-75
2023/03/11 02:11:04;;;;;;;0.98;0.88;;;1.50;99.90;;;;;;4971929;28;20225;-76
2023/03/11 02:13:33;;;;;;;3.03;1.10;;;1.50;99.90;;;;;;4971559;28;20601;-75
2023/03/11 02:16:00;;;;;;;2.95;1.98;;;1.40;99.90;;;;;;4971651;28;20495;-76
2023/03/11 02:18:26;;;;;;;1.20;1.10;;;1.40;99.90;;;;;;4971907;28;20204;-75
2023/03/11 02:21:03;;;;;;;1.73;1.35;;;1.40;99.90;;;;;;4976714;28;20223;-75
2023/03/11 02:23:37;;;;;;;1.20;1.00;;;1.40;99.90;;;;;;4990609;28;20319;-76
2023/03/11 02:26:12;;;;;;;1.00;0.90;;;1.40;99.90;;;;;;4990900;28;20613;-76
2023/03/11 02:28:41;;;;;;;1.67;1.40;;;1.40;99.90;;;;;;4972285;28;20203;-76
2023/03/11 02:31:07;;;;;;;1.50;1.40;;;1.40;99.90;;;;;;4978440;28;20218;-76
2023/03/11 02:33:36;;;;;;;6.20;1.10;;;1.30;99.90;;;;;;4990850;28;20223;-76
2023/03/11 02:36:03;;;;;;;1.20;1.10;;;1.30;99.90;;;;;;4990862;28;20199;-76
2023/03/11 02:38:30;;;;;;;1.67;1.10;;;1.30;99.90;;;;;;4983036;28;20203;-76
2023/03/11 02:40:59;;;;;;;1.05;0.95;;;1.20;99.90;;;;;;4990667;28;20218;-76
2023/03/11 02:43:33;;;;;;;1.42;0.80;;;1.20;99.90;;;;;;4973475;28;20224;-75
2023/03/11 02:46:01;;;;;;;1.60;1.17;;;1.20;99.90;;;;;;4970914;28;20227;-75
2023/03/11 02:48:29;;;;;;;1.92;1.40;;;1.20;99.90;;;;;;4971226;28;20581;-74
2023/03/11 02:50:57;;;;;;;1.20;0.90;;;1.30;99.90;;;;;;4971412;28;20196;-75
2023/03/11 02:53:25;;;;;;;3.45;1.38;;;1.20;99.90;;;;;;4970811;28;20224;-75
2023/03/11 02:55:52;;;;;;;1.23;1.13;;;1.20;99.90;;;;;;4975874;28;20222;-75
2023/03/11 02:58:18;;;;;;;1.08;0.98;;;1.10;99.90;;;;;;4990883;28;20226;-75
2023/03/11 03:00:45;;;;;;;1.05;0.95;;;1.00;99.90;;;;;;4987689;28;20226;-75
2023/03/11 03:03:13;;;;;;;0.80;0.80;;;0.90;99.90;;;;;;4971487;28;20602;-76
2023/03/11 03:05:40;;;;;;;2.83;1.77;;;0.90;99.90;;;;;;4971297;28;20210;-75
2023/03/11 03:08:06;;;;;;;1.40;1.30;;;0.90;99.90;;;;;;4972002;28;20195;-75
2023/03/11 03:10:33;;;;;;;1.33;1.00;;;0.80;99.90;;;;;;4971610;28;20207;-74
2023/03/11 03:13:00;;;;;;;1.02;0.90;;;0.70;99.90;;;;;;4977043;28;20231;-75
2023/03/11 03:15:27;;;;;;;1.90;1.33;;;0.70;99.90;;;;;;4990706;28;20678;-75
2023/03/11 03:17:53;;;;;;;1.10;1.00;;;0.70;99.90;;;;;;4991095;28;20257;-75
2023/03/11 03:20:22;;;;;;;1.85;1.00;;;0.60;99.90;;;;;;4991012;28;20203;-75
2023/03/11 03:22:50;;;;;;;5.20;1.30;;;0.60;99.90;;;;;;4979110;28;20286;-75
2023/03/11 03:25:16;;;;;;;1.80;1.10;;;0.50;99.90;;;;;;4978931;28;20231;-75
2023/03/11 03:27:43;;;;;;;1.73;1.20;;;0.50;99.90;;;;;;4990939;28;20210;-75
2023/03/11 03:30:11;;;;;;;2.10;1.10;;;0.40;99.90;;;;;;4991006;28;20822;-75
2023/03/11 03:32:38;;;;;;;3.35;1.10;;;0.40;99.90;;;;;;4988435;28;20871;-75
2023/03/11 03:35:06;;;;;;;2.28;1.00;;;0.40;99.90;;;;;;4971385;28;20211;-75
2023/03/11 03:37:36;;;;;;;1.33;0.98;;;0.30;99.90;;;;;;4972780;28;20204;-75
2023/03/11 03:40:06;;;;;;;1.88;1.48;;;0.30;99.90;;;;;;4977379;28;20663;-75
2023/03/11 03:42:33;;;;;;;1.00;0.90;;;0.30;99.90;;;;;;4990874;28;20227;-75
2023/03/11 03:45:00;;;;;;;1.20;1.10;;;0.30;99.90;;;;;;4990516;28;20321;-75
2023/03/11 03:47:26;;;;;;;5.10;1.40;;;0.30;99.90;;;;;;4990776;28;20203;-76
2023/03/11 03:49:53;;;;;;;1.13;1.02;;;0.20;99.90;;;;;;4992737;28;20203;-75
2023/03/11 03:52:20;;;;;;;4.28;1.60;;;0.20;99.90;;;;;;4994647;28;20261;-75
2023/03/11 03:54:48;;;;;;;1.10;1.00;;;0.20;99.90;;;;;;4994165;28;20218;-75
2023/03/11 03:57:15;;;;;;;2.08;1.35;;;0.20;99.90;;;;;;4994635;28;20671;-75
2023/03/11 03:59:41;;;;;;;1.50;1.30;;;0.10;99.90;;;;;;4994707;28;20199;-75
2023/03/11 04:02:08;;;;;;;1.55;0.90;;;0.10;99.90;;;;;;4980273;28;20714;-75
2023/03/11 04:04:35;;;;;;;1.13;1.02;;;0.10;99.90;;;;;;4974581;28;20228;-75
2023/03/11 04:07:04;;;;;;;2.03;1.10;;;0.10;99.90;;;;;;4980137;28;20211;-75
2023/03/11 04:09:31;;;;;;;1.00;0.90;;;0.00;99.90;;;;;;4994268;28;20253;-75
2023/03/11 04:11:59;;;;;;;1.10;1.00;;;0.00;99.90;;;;;;4993894;28;20202;-76
2023/03/11 04:14:26;;;;;;;2.03;1.25;;;-0.10;99.90;;;;;;4993709;28;20718;-75
2023/03/11 04:16:53;;;;;;;1.30;1.20;;;-0.10;99.90;;;;;;4993556;28;20210;-74
2023/03/11 04:19:19;;;;;;;4.70;1.00;;;-0.10;99.90;;;;;;4994075;28;20214;-75
2023/03/11 04:21:46;;;;;;;1.20;1.10;;;-0.10;99.90;;;;;;4993730;28;20222;-75
2023/03/11 04:24:13;;;;;;;1.15;1.05;;;-0.20;99.90;;;;;;4993389;28;20737;-75
2023/03/11 04:26:40;;;;;;;2.08;1.40;;;-0.10;99.90;;;;;;4993469;28;20585;-76
2023/03/11 04:29:08;;;;;;;1.10;0.95;;;-0.20;99.90;;;;;;4993538;28;20199;-75
2023/03/11 04:31:35;;;;;;;2.75;1.55;;;-0.20;99.90;;;;;;4993413;28;20203;-75
2023/03/11 04:34:02;;;;;;;3.10;1.40;;;-0.30;99.90;;;;;;4993185;28;20215;-75
2023/03/11 04:36:29;;;;;;;3.30;1.27;;;-0.20;99.90;;;;;;4993210;28;20298;-75
2023/03/11 04:38:56;;;;;;;1.33;0.90;;;-0.20;99.90;;;;;;4993537;28;20211;-75
2023/03/11 04:41:23;;;;;;;1.63;0.88;;;-0.30;99.90;;;;;;4993567;28;20219;-75
2023/03/11 04:43:50;;;;;;;1.80;1.02;;;-0.30;99.90;;;;;;4977241;28;20219;-74
2023/03/11 04:46:18;;;;;;;0.93;0.82;;;-0.30;99.90;;;;;;4992947;28;20210;-76
2023/03/11 04:48:44;;;;;;;1.00;0.90;;;-0.30;99.90;;;;;;4993469;28;20871;-76
2023/03/11 04:51:11;;;;;;;3.95;1.33;;;-0.30;99.90;;;;;;4992905;28;20222;-75
2023/03/11 04:53:38;;;;;;;2.55;0.90;;;-0.40;99.90;;;;;;4992843;28;20227;-75
2023/03/11 04:56:05;;;;;;;5.18;1.40;;;-0.40;99.90;;;;;;4992944;28;20203;-75
2023/03/11 04:58:31;;;;;;;1.65;1.20;;;-0.40;99.90;;;;;;4993270;28;20226;-74
2023/03/11 05:00:58;;;;;;;1.00;0.90;;;-0.40;99.90;;;;;;4991708;28;20204;-75
2023/03/11 05:03:26;;;;;;;1.15;0.90;;;-0.40;99.90;;;;;;4992683;28;20227;-76
2023/03/11 05:05:55;;;;;;;1.88;1.23;;;-0.50;99.90;;;;;;4973442;28;20195;-76
2023/03/11 05:08:22;;;;;;;1.80;1.25;;;-0.40;99.90;;;;;;4973983;28;20207;-76
2023/03/11 05:10:49;;;;;;;1.48;1.08;;;-0.50;99.90;;;;;;4973983;28;20554;-76
2023/03/11 05:13:15;;;;;;;2.85;1.40;;;-0.40;99.90;;;;;;4979908;28;20226;-75
2023/03/11 05:15:42;;;;;;;1.50;1.00;;;-0.50;99.90;;;;;;4992577;28;20601;-75
2023/03/11 05:18:09;;;;;;;2.50;1.40;;;-0.50;99.90;;;;;;4992819;28;20674;-76
2023/03/11 05:20:37;;;;;;;1.65;1.25;;;-0.50;99.90;;;;;;4992755;28;20588;-76
2023/03/11 05:23:04;;;;;;;2.33;1.50;;;-0.60;99.90;;;;;;4992343;28;20612;-76
2023/03/11 05:25:31;;;;;;;2.58;1.90;;;-0.60;99.90;;;;;;4992175;28;20222;-75
2023/03/11 05:27:58;;;;;;;1.40;1.30;;;-0.60;99.90;;;;;;4988560;28;20586;-76
2023/03/11 05:30:25;;;;;;;3.65;1.98;;;-0.50;99.90;;;;;;4973075;28;20200;-76
2023/03/11 05:32:51;;;;;;;1.00;0.90;;;-0.60;99.90;;;;;;4991991;28;20199;-75
2023/03/11 05:35:19;;;;;;;1.23;0.90;;;-0.60;99.90;;;;;;4992124;28;20241;-76
2023/03/11 05:37:48;;;;;;;2.58;1.90;;;-0.60;99.90;;;;;;4985543;28;20207;-76
2023/03/11 05:40:16;;;;;;;4.22;1.50;;;-0.60;99.90;;;;;;4979716;28;20674;-76
2023/03/11 05:42:42;;;;;;;1.20;1.00;;;-0.60;99.90;;;;;;4992247;28;20311;-76
2023/03/11 05:45:10;;;;;;;1.65;1.10;;;-0.60;99.90;;;;;;4991785;28;20199;-76
2023/03/11 05:47:37;;;;;;;1.90;1.33;;;-0.60;99.90;;;;;;4992186;28;20207;-76
2023/03/11 05:50:05;;;;;;;1.40;1.27;;;-0.60;99.90;;;;;;4984450;28;20222;-76
2023/03/11 05:52:32;;;;;;;3.35;1.40;;;-0.60;99.90;;;;;;4991868;28;20202;-76
2023/03/11 05:55:00;;;;;;;1.60;1.50;;;-0.60;99.90;;;;;;4991600;28;20306;-76
2023/03/11 05:57:27;;;;;;;2.95;1.00;;;-0.60;99.90;;;;;;4992441;28;20203;-76
2023/03/11 05:59:54;;;;;;;1.00;0.90;;;-0.60;99.90;;;;;;4992088;28;20238;-76
2023/03/11 06:02:22;;;;;;;1.42;1.10;;;-0.60;99.90;;;;;;4991943;28;20698;-75
2023/03/11 06:04:48;;;;;;;1.40;1.30;;;-0.70;99.90;;;;;;4991524;28;20223;-75
2023/03/11 06:07:15;;;;;;;1.20;1.10;;;-0.60;99.90;;;;;;4992060;28;20230;-76
2023/03/11 06:09:42;;;;;;;1.38;1.27;;;-0.70;99.90;;;;;;4992102;28;20207;-76
2023/03/11 06:12:10;;;;;;;1.60;1.23;;;-0.60;99.90;;;;;;4991320;28;20198;-75
2023/03/11 06:14:37;;;;;;;9.27;1.20;;;-0.60;99.90;;;;;;4992831;28;20277;-76
2023/03/11 06:17:04;;;;;;;10.95;1.55;;;-0.60;99.90;;;;;;4981653;28;20239;-75
2023/03/11 06:19:31;;;;;;;1.02;0.93;;;-0.50;99.90;;;;;;4972604;28;20200;-76
2023/03/11 06:21:57;;;;;;;1.67;1.25;;;-0.50;99.90;;;;;;4972069;28;20568;-76
2023/03/11 06:24:24;;;;;;;2.75;1.45;;;-0.50;99.90;;;;;;4971994;28;20255;-75
2023/03/11 06:26:51;;;;;;;1.33;1.00;;;-0.40;99.90;;;;;;4982540;28;20211;-76
2023/03/11 06:29:20;;;;;;;1.65;1.10;;;-0.30;99.90;;;;;;4991996;28;20657;-75
2023/03/11 06:31:47;;;;;;;4.45;1.33;;;-0.30;99.90;;;;;;4991520;28;20294;-75
2023/03/11 06:34:14;;;;;;;1.48;1.23;;;-0.30;99.90;;;;;;4991151;28;20226;-76
2023/03/11 06:36:41;;;;;;;1.90;1.40;;;-0.30;99.90;;;;;;4991241;28;20207;-76
2023/03/11 06:39:08;;;;;;;3.50;1.38;;;-0.20;99.90;;;;;;4991591;28;20213;-75
2023/03/11 06:41:35;;;;;;;1.55;1.27;;;-0.20;99.90;;;;;;4988718;28;20309;-76
2023/03/11 06:44:03;;;;;;;1.10;1.00;;;-0.10;99.90;;;;;;4987322;28;20223;-74
2023/03/11 06:46:31;;;;;;;4.03;1.13;;;-0.10;99.90;;;;;;4988310;28;20226;-75
2023/03/11 06:48:57;;;;;;;4.75;1.75;;;0.00;99.90;;;;;;4977972;28;20209;-74
2023/03/11 06:51:24;;;;;;;2.10;1.20;;;0.10;99.90;;;;;;4989749;28;20203;-76
2023/03/11 06:53:52;;;;;;;2.38;1.80;;;0.20;99.90;;;;;;4990985;28;20230;-76
2023/03/11 06:56:20;;;;;;;3.75;1.27;;;0.30;99.90;;;;;;4983925;28;20212;-76
2023/03/11 06:58:47;;;;;;;1.25;1.10;;;0.50;99.90;;;;;;4981713;28;20207;-76
2023/03/11 07:01:15;;;;;;;1.60;1.50;;;0.70;99.90;;;;;;4991646;28;20203;-74
2023/03/11 07:03:43;;;;;;;1.90;1.50;;;0.90;99.90;;;;;;4996691;28;20476;-77
2023/03/11 07:06:13;;;;;;;2.63;1.50;;;1.20;99.90;;;;;;4998879;28;20203;-77
2023/03/11 07:08:40;;;;;;;1.70;1.45;;;1.50;99.90;;;;;;4991896;28;20202;-78
2023/03/11 07:11:09;;;;;;;2.13;1.35;;;2.00;99.90;;;;;;4992079;28;20211;-76
2023/03/11 07:13:37;;;;;;;3.38;1.17;;;2.50;99.90;;;;;;4991815;28;20303;-76
2023/03/11 07:16:05;;;;;;;2.92;1.33;;;3.10;99.90;;;;;;4990800;28;20203;-76
2023/03/11 07:18:33;;;;;;;1.92;1.40;;;3.60;99.90;;;;;;4991474;28;20199;-76
2023/03/11 07:21:03;;;;;;;2.95;1.20;;;4.10;99.90;;;;;;4991001;28;20199;-77
2023/03/11 07:23:30;;;;;;;4.07;1.55;;;4.60;99.90;;;;;;5060800;23;20230;-71
2023/03/11 07:25:56;;;;;;;2.40;1.13;;;5.10;99.90;;;;;;4954927;28;20562;-71
2023/03/11 07:28:24;;;;;;;1.33;1.20;;;5.40;98.90;;;;;;4955881;28;20215;-68
2023/03/11 07:30:51;;;;;;;3.08;1.30;;;5.60;99.00;;;;;;4955494;28;20211;-70
2023/03/11 07:33:18;;;;;;;6.40;1.75;;;5.70;98.10;;;;;;4950608;28;20217;-70
2023/03/11 07:35:45;;;;;;;2.85;1.40;;;5.80;97.80;;;;;;4936075;29;20550;-68
2023/03/11 07:38:13;;;;;;;2.55;1.10;;;5.90;97.50;;;;;;4936877;29;20205;-68
2023/03/11 07:40:40;;;;;;;1.08;0.80;;;6.20;97.90;;;;;;4936475;29;20212;-68
2023/03/11 07:43:06;;;;;;;2.05;1.20;;;6.90;97.60;;;;;;4936489;29;20232;-68
2023/03/11 07:45:33;;;;;;;1.40;1.00;;;7.80;96.70;;;;;;4936295;29;20205;-69
2023/03/11 07:48:00;;;;;;;2.67;1.33;;;8.50;95.50;;;;;;4936757;29;20209;-68
2023/03/11 07:50:27;;;;;;;1.20;0.98;;;9.10;93.80;;;;;;4936660;29;20232;-68
2023/03/11 07:52:53;;;;;;;1.10;0.90;;;9.50;92.50;;;;;;4936108;29;20201;-68
2023/03/11 07:55:21;;;;;;;5.63;1.45;;;9.80;92.50;;;;;;4933725;29;20201;-69
2023/03/11 07:57:50;;;;;;;1.88;1.25;;;10.00;91.90;;;;;;4939073;29;20207;-70
2023/03/11 08:00:17;;;;;;;5.00;1.55;;;10.50;90.90;;;;;;4955659;29;20201;-70
2023/03/11 08:02:44;;;;;;;1.77;1.10;;;10.70;90.60;;;;;;4954265;29;20216;-70
2023/03/11 08:05:11;;;;;;;3.47;1.23;;;10.90;88.80;;;;;;4954047;29;20255;-70
2023/03/11 08:07:38;;;;;;;3.05;1.13;;;11.30;89.70;;;;;;4954363;29;20211;-70
2023/03/11 08:10:06;;;;;;;2.05;0.98;;;11.30;88.30;;;;;;4955016;29;20211;-70
2023/03/11 08:12:34;;;;;;;1.67;1.20;;;11.30;87.90;;;;;;4954632;29;20196;-71
2023/03/11 08:15:01;;;;;;;2.85;1.50;;;11.80;87.20;;;;;;4954603;29;20224;-70
2023/03/11 08:17:27;;;;;;;1.80;1.10;;;12.10;85.00;;;;;;4954806;29;20285;-70
2023/03/11 08:19:54;;;;;;;0.90;0.80;;;12.10;85.90;;;;;;4954298;29;20200;-70
2023/03/11 08:22:21;;;;;;;2.65;1.13;;;12.30;85.60;;;;;;4954495;29;20680;-70
2023/03/11 08:24:51;;;;;;;2.08;0.93;;;12.70;83.20;;;;;;4953846;29;20240;-70
2023/03/11 08:27:18;;;;;;;4.13;1.13;;;12.90;82.10;;;;;;4954786;29;20211;-71
2023/03/11 08:29:47;;;;;;;1.80;1.10;;;13.00;80.90;;;;;;4953788;29;20208;-71
2023/03/11 08:32:13;;;;;;;1.67;1.10;;;13.30;81.50;;;;;;4954815;29;20212;-70
2023/03/11 08:34:40;;;;;;;2.45;1.00;;;13.50;81.20;;;;;;4953511;29;20220;-70
2023/03/11 08:37:07;;;;;;;1.30;1.00;;;13.50;79.30;;;;;;4954764;28;20211;-70
2023/03/11 08:39:34;;;;;;;3.00;1.30;;;13.90;79.10;;;;;;4954182;29;20464;-70
2023/03/11 08:42:01;;;;;;;1.00;0.80;;;14.30;79.20;;;;;;4953885;29;20479;-70
2023/03/11 08:44:28;;;;;;;2.07;1.10;;;14.50;77.50;;;;;;4947797;29;20497;-70
2023/03/11 08:46:56;;;;;;;2.60;1.10;;;14.90;77.10;;;;;;4953106;29;20467;-70
2023/03/11 08:49:23;;;;;;;2.67;1.10;;;14.90;75.30;;;;;;4954406;29;20464;-70
2023/03/11 08:51:50;;;;;;;1.67;1.40;;;15.00;74.10;;;;;;4954079;28;20471;-72
2023/03/11 08:54:17;;;;;;;2.60;1.00;;;14.60;75.40;;;;;;4954193;28;20987;-72
2023/03/11 08:56:46;;;;;;;3.00;0.90;;;15.00;73.50;;;;;;4953561;29;20459;-72
2023/03/11 08:59:13;;;;;;;1.30;1.03;;;15.40;73.20;;;;;;4954657;28;20491;-71
2023/03/11 09:01:41;;;;;;;1.23;1.00;;;15.90;70.50;;;;;;4938417;29;20469;-72
2023/03/11 09:04:10;;;;;;;1.43;0.97;;;16.10;72.30;;;;;;4934288;29;21062;-71
2023/03/11 09:06:37;;;;;;;1.37;1.10;;;16.50;72.10;;;;;;4950244;29;20463;-71
2023/03/11 09:09:04;;;;;;;1.27;1.00;;;17.10;70.10;;;;;;4954333;28;20464;-72
2023/03/11 09:11:31;;;;;;;1.80;1.07;;;17.60;67.90;;;;;;4953662;28;20464;-71
2023/03/11 09:13:58;;;;;;;1.70;1.10;;;18.10;67.80;;;;;;4951504;28;20480;-71
2023/03/11 09:16:25;;;;;;;2.40;1.20;;;18.20;66.20;;;;;;4934291;29;20465;-71
2023/03/11 09:18:52;;;;;;;1.10;1.00;;;18.30;65.90;;;;;;4943919;29;20475;-71
2023/03/11 09:21:21;;;;;;;1.10;1.00;;;18.40;64.50;;;;;;4953894;29;20472;-71
2023/03/11 09:23:48;;;;;;;2.53;1.20;;;18.50;65.10;;;;;;4952968;28;20521;-71
2023/03/11 09:26:15;;;;;;;1.77;0.93;;;18.60;63.90;;;;;;4941072;29;20843;-71
2023/03/11 09:28:45;;;;;;;2.27;1.10;;;18.80;65.50;;;;;;4933768;29;20479;-71
2023/03/11 09:31:13;;;;;;;1.37;1.03;;;18.80;64.40;;;;;;4934610;29;20543;-71
2023/03/11 09:33:41;;;;;;;1.20;0.83;;;18.80;62.10;;;;;;4941424;29;20484;-71
2023/03/11 09:36:12;;;;;;;1.27;1.00;;;16.90;63.30;;;;;;4934649;29;20476;-71
2023/03/11 09:38:40;;;;;;;1.10;1.00;;;14.80;68.30;;;;;;4934086;29;20476;-71
2023/03/11 09:41:18;;;;;;;1.73;1.50;;;13.60;68.10;;;;;;4944570;29;20880;-71
2023/03/11 09:44:04;;;;;;;2.65;1.30;;;11.90;68.20;;;;;;4941317;29;21026;-71
2023/03/11 09:47:03;;;;;;;1.60;0.90;;;10.40;69.40;;;;;;4938041;29;20208;-70
2023/03/11 09:49:42;;;;;;;2.22;1.00;;;9.20;74.50;;;;;;4947983;29;20204;-72
2023/03/11 09:52:11;;;;;;;1.98;0.90;;;8.80;77.40;;;;;;4952978;29;20309;-70
2023/03/11 09:54:42;;;;;;;1.13;1.00;;;10.70;73.60;;;;;;4951389;29;20231;-70
2023/03/11 09:57:15;;;;;;;1.17;1.02;;;13.60;73.40;;;;;;4941653;29;20211;-71
2023/03/11 09:59:43;;;;;;;2.73;1.20;;;15.60;67.50;;;;;;4952607;29;20292;-71
2023/03/11 10:02:15;;;;;;;1.70;0.80;;;17.50;62.90;;;;;;4933444;29;20932;-71
2023/03/11 10:04:50;;;;;;;0.93;0.83;;;18.90;62.00;;;;;;4933054;29;21007;-71
2023/03/11 10:07:21;;;;;;;2.87;1.00;;;20.00;59.00;;;;;;4952417;29;20471;-71
2023/03/11 10:09:53;;;;;;;1.80;1.10;;;20.20;59.10;;;;;;4951975;28;20472;-70
2023/03/11 10:12:31;;;;;;;2.50;0.97;;;20.20;59.10;;;;;;4952474;29;20913;-71
2023/03/11 10:15:14;;;;;;;2.07;1.10;;;20.90;60.80;;;;;;4952165;29;20514;-71
2023/03/11 10:17:50;;;;;;;1.20;0.90;;;21.70;57.30;;;;;;4951264;29;20464;-71
2023/03/11 10:20:22;;;;;;;0.97;0.77;;;22.10;56.30;;;;;;4952319;29;20978;-71
2023/03/11 10:22:57;;;;;;;1.50;0.90;;;21.50;55.20;;;;;;4951687;29;20499;-71
2023/03/11 10:25:30;;;;;;;3.30;1.27;;;19.70;57.30;;;;;;4951983;29;20479;-71
2023/03/11 10:28:02;;;;;;;2.00;0.97;;;19.60;58.40;;;;;;4951799;29;20474;-71
2023/03/11 10:30:33;;;;;;;2.03;0.93;;;20.80;58.50;;;;;;4951316;29;20467;-71
2023/03/11 10:33:06;;;;;;;3.47;1.10;;;21.40;57.40;;;;;;4951501;29;20496;-71
2023/03/11 10:35:39;;;;;;;1.60;1.30;;;21.30;56.70;;;;;;4951648;29;20464;-71
2023/03/11 10:38:12;;;;;;;1.73;1.00;;;20.10;56.60;;;;;;4951731;28;20472;-71
2023/03/11 10:40:42;;;;;;;3.33;1.00;;;18.00;56.90;;;;;;4951691;29;20882;-71
2023/03/11 10:43:14;;;;;;;1.87;1.10;;;15.40;59.70;;;;;;4951539;29;20495;-71
2023/03/11 10:45:43;;;;;;;2.13;1.03;;;13.50;62.20;;;;;;4951335;28;20891;-71
2023/03/11 10:48:12;;;;;;;1.60;1.20;;;12.50;65.90;;;;;;4952216;29;20464;-71
2023/03/11 10:50:49;;;;;;;1.17;0.80;;;11.80;64.30;;;;;;4951709;29;20272;-71
2023/03/11 10:53:17;;;;;;;1.02;0.80;;;12.10;66.90;;;;;;4933081;29;20220;-71
2023/03/11 10:55:50;;;;;;;1.57;1.30;;;13.80;64.70;;;;;;4931852;29;20213;-71
2023/03/11 10:58:19;;;;;;;3.43;1.20;;;16.30;59.40;;;;;;4932927;29;20472;-71
2023/03/11 11:00:45;;;;;;;0.80;0.80;;;17.00;59.60;;;;;;4932107;29;20461;-71
2023/03/11 11:03:21;;;;;;;1.67;0.93;;;17.30;60.50;;;;;;4944210;28;20486;-72
2023/03/11 11:05:59;;;;;;;1.30;0.87;;;16.80;57.70;;;;;;4951785;29;21155;-72
2023/03/11 11:08:26;;;;;;;1.00;0.80;;;15.30;58.50;;;;;;4950604;28;20472;-72
2023/03/11 11:10:56;;;;;;;1.35;0.90;;;14.10;58.30;;;;;;4951965;29;20542;-71
2023/03/11 11:13:24;;;;;;;3.17;0.90;;;12.80;59.40;;;;;;4951506;29;20220;-70
2023/03/11 11:15:59;;;;;;;2.13;1.23;;;10.80;61.00;;;;;;4951144;29;20707;-70
2023/03/11 11:18:29;;;;;;;1.20;1.08;;;9.30;66.30;;;;;;4950862;29;20598;-70
2023/03/11 11:21:00;;;;;;;2.50;1.73;;;8.50;70.20;;;;;;4936165;29;20583;-70
2023/03/11 11:23:31;;;;;;;1.70;1.00;;;8.30;70.90;;;;;;4943512;29;20235;-71
2023/03/11 11:26:00;;;;;;;1.58;0.98;;;8.80;70.50;;;;;;4943953;29;20205;-71
2023/03/11 11:28:28;;;;;;;1.85;1.27;;;10.60;66.90;;;;;;4951622;29;20680;-72
2023/03/11 11:30:56;;;;;;;1.42;0.98;;;12.90;64.80;;;;;;4950731;28;20232;-71
2023/03/11 11:33:26;;;;;;;1.63;0.90;;;14.50;60.40;;;;;;4951780;28;20231;-72
2023/03/11 11:35:54;;;;;;;1.50;0.80;;;15.80;60.50;;;;;;4942824;29;20208;-71
2023/03/11 11:38:23;;;;;;;1.20;0.80;;;15.90;60.20;;;;;;4939975;29;20968;-71
2023/03/11 11:40:51;;;;;;;1.30;1.10;;;14.80;57.90;;;;;;4932352;29;20503;-71
2023/03/11 11:43:32;;;;;;;1.23;1.10;;;13.00;59.30;;;;;;4932037;29;20289;-72
2023/03/11 11:46:02;;;;;;;1.08;0.90;;;11.70;65.50;;;;;;4948885;29;20303;-72
2023/03/11 11:48:35;;;;;;;1.50;0.90;;;11.30;65.70;;;;;;4951443;28;20228;-71
2023/03/11 11:51:14;;;;;;;2.00;1.08;;;10.90;66.70;;;;;;4951276;28;20232;-72
2023/03/11 11:53:45;;;;;;;0.90;0.75;;;10.40;67.30;;;;;;4951010;28;20225;-71
2023/03/11 11:56:12;;;;;;;1.15;1.05;;;9.80;70.30;;;;;;4950590;29;20204;-72
2023/03/11 11:58:41;;;;;;;1.98;1.15;;;9.50;68.30;;;;;;4951248;29;20205;-71
2023/03/11 12:01:15;;;;;;;1.67;1.02;;;9.20;68.20;;;;;;4951101;29;20212;-72
2023/03/11 12:04:17;;;;;;;2.85;1.30;;;9.00;67.90;;;;;;4950930;29;20228;-71
2023/03/11 12:06:49;;;;;;;4.47;1.23;;;10.30;66.50;;;;;;4950632;29;20632;-72
2023/03/11 12:09:26;;;;;;;1.27;0.85;;;11.40;64.00;;;;;;4951607;29;20204;-72
2023/03/11 12:12:02;;;;;;;1.10;1.00;;;11.10;66.60;;;;;;4953446;28;20204;-71
2023/03/11 12:14:40;;;;;;;1.33;0.90;;;10.40;68.90;;;;;;4949222;29;20229;-72
2023/03/11 12:17:09;;;;;;;1.40;0.90;;;10.50;67.80;;;;;;4952686;29;20254;-71
2023/03/11 12:19:41;;;;;;;2.10;1.00;;;10.20;66.70;;;;;;4953447;29;20660;-71
2023/03/11 12:22:31;;;;;;;2.15;1.08;;;9.60;70.00;;;;;;4946005;29;20204;-71
2023/03/11 12:25:20;;;;;;;1.02;0.80;;;8.70;67.40;;;;;;4953120;28;20239;-71
2023/03/11 12:27:52;;;;;;;1.70;1.10;;;8.70;67.10;;;;;;4949566;29;20213;-72
2023/03/11 12:30:25;;;;;;;1.98;1.00;;;10.50;68.40;;;;;;4943429;29;20209;-72
2023/03/11 12:32:56;;;;;;;1.17;1.05;;;12.40;65.90;;;;;;4942677;29;20264;-72
2023/03/11 12:35:26;;;;;;;2.28;1.30;;;14.40;63.90;;;;;;4953084;28;20207;-72
2023/03/11 12:38:15;;;;;;;1.00;0.80;;;15.60;60.50;;;;;;4952873;29;20209;-72
2023/03/11 12:41:02;;;;;;;0.90;0.80;;;15.70;60.70;;;;;;4950953;29;20219;-72
2023/03/11 12:43:59;;;;;;;1.60;1.00;;;16.00;60.40;;;;;;4946753;28;20263;-72
2023/03/11 12:49:24;;;;;;;3.42;1.30;;;15.50;58.50;;;;;;5086792;27;20563;-72
2023/03/11 12:52:02;;;;;;;1.63;1.23;;;12.90;60.40;;;;;;5085829;28;20211;-72
2023/03/11 12:54:32;;;;;;;1.50;1.13;;;11.60;61.70;;;;;;5058581;28;20311;-72
2023/03/11 12:57:01;;;;;;;1.00;0.90;;;11.00;65.10;;;;;;5073850;28;20196;-72
2023/03/11 13:00:10;;;;;;;1.45;1.00;;;11.10;64.40;;;;;;5066155;28;20200;-73
2023/03/11 13:03:05;;;;;;;4.50;1.23;;;11.60;63.60;;;;;;5066086;28;20551;-72
2023/03/11 13:05:49;;;;;;;1.50;0.90;;;11.60;62.90;;;;;;5059068;28;20243;-72